This is the latest recevied weather packets stored in our database for station/object K6HFP. If no packets are shown the sender has not sent any weather packets the latest 10 day(s).
| Time | Temp. | Humidity | Pressure | Rain* | Wind** | Luminosity | Snow |
|---|---|---|---|---|---|---|---|
| 1778017769 | 15.56° C | 75% | 1014.1 hPa | 0 mm | - | 344 W/m² | - |
| 1778017467 | 15.56° C | 76% | 1014 hPa | 0 mm | - | 353 W/m² | - |
| 1778017164 | 15.56° C | 75% | 1014 hPa | 0 mm | - | 326 W/m² | - |
| 1778016861 | 15.56° C | 75% | 1014.2 hPa | 0 mm | - | 317 W/m² | - |
| 1778016557 | 15° C | 75% | 1014.1 hPa | 0 mm | - | 307 W/m² | - |
| 1778016254 | 15° C | 76% | 1014.1 hPa | 0 mm | - | 273 W/m² | - |
| 1778015951 | 15° C | 76% | 1014.2 hPa | 0 mm | - | 218 W/m² | - |
| 1778015649 | 15° C | 76% | 1014.4 hPa | 0 mm | - | 181 W/m² | - |
| 1778015344 | 15° C | 76% | 1014.2 hPa | 0 mm | - | 165 W/m² | - |
| 1778015042 | 15° C | 75% | 1014.1 hPa | 0 mm | - | 165 W/m² | - |
| 1778014739 | 15° C | 74% | 1014.3 hPa | 0 mm | - | 168 W/m² | - |
| 1778014437 | 15.56° C | 74% | 1014.2 hPa | 0 mm | - | 162 W/m² | - |
| 1778014134 | 15.56° C | 72% | 1014.3 hPa | 0 mm | - | 162 W/m² | - |
| 1778013831 | 15.56° C | 72% | 1014.2 hPa | 0 mm | - | 193 W/m² | - |
| 1778013528 | 16.11° C | 72% | 1014.3 hPa | 0 mm | - | 227 W/m² | - |
| 1778013224 | 16.11° C | 71% | 1013.9 hPa | 0 mm | - | 275 W/m² | - |
| 1778012921 | 16.67° C | 70% | 1014 hPa | 0 mm | - | 760 W/m² | - |
| 1778012617 | 16.67° C | 72% | 1014.1 hPa | 0 mm | - | 452 W/m² | - |
| 1778012314 | 16.67° C | 69% | 1014.1 hPa | 0 mm | - | 612 W/m² | - |
| 1778012012 | 16.11° C | 73% | 1014.4 hPa | 0 mm | - | 1274 W/m² | - |
| 1778011710 | 16.67° C | 69% | 1014.2 hPa | 0 mm | - | 724 W/m² | - |
| 1778011406 | 15.56° C | 77% | 1014.4 hPa | 0 mm | - | 1237 W/m² | - |
| 1778011102 | 15° C | 77% | 1014.2 hPa | 0 mm | - | 1004 W/m² | - |
| 1778010799 | 15° C | 75% | 1014.4 hPa | 0 mm | - | 348 W/m² | - |
| 1778010496 | 15° C | 78% | 1014.4 hPa | 0 mm | - | 268 W/m² | - |
* Rain latest hour (hover to see other rain measurements)
** Current wind speed in m/s (hover to see current wind gust speed)